Terminal Aerodrome Forecast
Issued by NWS Cleveland, OH

Home | Current Version | Previous Version | Text Only | Print | Product List | Glossary Off
Versions: 1 2 3 4 5 6 7 8 9 10 11 12 13 14 15 16 17 18 19

332
FTUS41 KCLE 112330
TAFMFD
TAF
KMFD 112330Z 1200/1224 22005KT P6SM BKN040
     FM121100 22005KT P6SM BKN100
     FM121500 24012KT P6SM SCT035 OVC100
     FM122100 26012G20KT 6SM -SHSN SCT025 OVC040=

USA.gov is the U.S. government's official web portal to all federal, state and local government web resources and services.